White Sands Missile Range, New Mexico
Current Conditions -  °F | °C
As of 3:35 PM on Monday 22 Dec 2014 (Local Time) from KLRU Reporting Station
Clear Clear  
Wind Chill: 62°   Ceiling: Unl
Heat Index: 62°   Visibility: 10mi
Dew Point: 32°   Wind: 28mph
Humidity: 33%   Direction: 250°WSW
Pressure: 29.73"   Gusts: 37mph
Location:  32.38°N, 106.49°W
Report Text: KLRU 222235Z AUTO 25024G32KT 10SM CLR 17/00 A2973 RMK AO2 T01650000
Loading
Personal Weather Stations






























Interactive Weather Map New forecast layout! Learn more

10-Day Weather Forecast

Advertisements
Track Severe Weather on mobile